Time;durP1;ratioP1;P1;durP2;ratioP2;P2;SDS_P1;SDS_P2;PMS_P1;PMS_P2;Temp;Humidity;BMP_temperature;BMP_pressure;BME280_temperature;BME280_humidity;BME280_pressure;Samples;Min_cycle;Max_cycle;Signal;HPM_P1;HPM_P2
2022/03/09 00:00:37;;;;;;;1.03;1.03;;;1.60;99.90;;;;;;5094914;28;20168;-75
2022/03/09 00:03:02;;;;;;;1.83;1.70;;;1.60;99.90;;;;;;5094590;28;20263;-76
2022/03/09 00:05:28;;;;;;;1.13;0.83;;;1.50;99.90;;;;;;5076374;28;20275;-75
2022/03/09 00:07:54;;;;;;;1.17;1.17;;;1.50;99.90;;;;;;5076501;28;20175;-77
2022/03/09 00:10:19;;;;;;;1.27;1.03;;;1.50;99.90;;;;;;5094492;28;20184;-76
2022/03/09 00:12:45;;;;;;;0.67;0.67;;;1.50;99.90;;;;;;5094656;28;20261;-77
2022/03/09 00:15:10;;;;;;;0.70;0.70;;;1.40;99.90;;;;;;5076315;28;20670;-77
2022/03/09 00:17:37;;;;;;;0.27;0.27;;;1.40;99.90;;;;;;5094657;28;20210;-76
2022/03/09 00:20:04;;;;;;;2.30;2.17;;;1.30;99.90;;;;;;5094496;28;20180;-76
2022/03/09 00:22:29;;;;;;;4.87;2.23;;;1.30;99.90;;;;;;5094420;28;20535;-76
2022/03/09 00:24:55;;;;;;;0.50;0.50;;;1.30;99.90;;;;;;5075924;28;20199;-77
2022/03/09 00:27:20;;;;;;;0.73;0.73;;;1.20;99.90;;;;;;5094356;28;20187;-76
2022/03/09 00:29:46;;;;;;;0.53;0.53;;;1.10;99.90;;;;;;5094608;28;20209;-77
2022/03/09 00:32:13;;;;;;;2.37;1.60;;;1.00;99.90;;;;;;5094086;28;20176;-77
2022/03/09 00:34:39;;;;;;;3.63;2.63;;;1.00;99.90;;;;;;5094045;28;20686;-76
2022/03/09 00:37:04;;;;;;;0.83;0.77;;;1.00;99.90;;;;;;5094090;28;20212;-76
2022/03/09 00:39:30;;;;;;;0.77;0.77;;;1.00;99.90;;;;;;5093973;28;20176;-76
2022/03/09 00:41:56;;;;;;;0.83;0.83;;;1.00;99.90;;;;;;5075615;28;20661;-76
2022/03/09 00:44:21;;;;;;;1.20;1.20;;;1.00;99.90;;;;;;5094203;28;20206;-76
2022/03/09 00:46:48;;;;;;;1.43;1.43;;;1.00;99.90;;;;;;5094102;28;20184;-75
2022/03/09 00:49:13;;;;;;;0.70;0.70;;;1.00;99.90;;;;;;5093984;28;20187;-76
2022/03/09 00:51:39;;;;;;;1.60;1.07;;;1.00;99.90;;;;;;5093079;28;20180;-76
2022/03/09 00:54:05;;;;;;;0.20;0.20;;;1.00;99.90;;;;;;5093477;28;20246;-78
2022/03/09 00:56:30;;;;;;;4.07;1.73;;;0.90;99.90;;;;;;5093922;28;20355;-76
2022/03/09 00:58:56;;;;;;;2.10;2.00;;;0.90;99.90;;;;;;5093732;28;20168;-76
2022/03/09 01:01:21;;;;;;;0.33;0.33;;;0.90;99.90;;;;;;5085006;28;20212;-77
2022/03/09 01:03:47;;;;;;;2.10;2.00;;;0.80;99.90;;;;;;5093568;28;20230;-76
2022/03/09 01:06:14;;;;;;;2.33;0.77;;;0.70;99.90;;;;;;5093532;28;20212;-76
2022/03/09 01:08:39;;;;;;;1.53;1.43;;;0.60;99.90;;;;;;5093392;28;20258;-75
2022/03/09 01:11:05;;;;;;;0.77;0.77;;;0.60;99.90;;;;;;5093461;28;20266;-76
2022/03/09 01:13:30;;;;;;;1.63;1.63;;;0.60;99.90;;;;;;5093171;28;20180;-76
2022/03/09 01:15:56;;;;;;;0.60;0.60;;;0.60;99.90;;;;;;5093513;28;20176;-75
2022/03/09 01:18:21;;;;;;;1.40;1.13;;;0.60;99.90;;;;;;5093230;28;20294;-75
2022/03/09 01:20:47;;;;;;;1.17;1.17;;;0.60;99.90;;;;;;5093904;28;20180;-75
2022/03/09 01:23:13;;;;;;;0.77;0.67;;;0.60;99.90;;;;;;5092882;28;20611;-75
2022/03/09 01:25:38;;;;;;;1.90;1.80;;;0.60;99.90;;;;;;5093349;28;20192;-76
2022/03/09 01:28:04;;;;;;;1.33;1.23;;;0.60;99.90;;;;;;5093286;28;20193;-75
2022/03/09 01:30:30;;;;;;;3.10;2.90;;;0.60;99.90;;;;;;5074926;28;20678;-75
2022/03/09 01:32:55;;;;;;;3.00;1.90;;;0.70;99.90;;;;;;5092679;28;20212;-76
2022/03/09 01:35:21;;;;;;;34.90;2.07;;;0.70;99.90;;;;;;5092962;28;20200;-76
2022/03/09 01:37:46;;;;;;;0.30;0.30;;;0.60;99.90;;;;;;5092704;28;20195;-75
2022/03/09 01:40:13;;;;;;;0.37;0.37;;;0.70;99.90;;;;;;5093210;28;20206;-76
2022/03/09 01:42:39;;;;;;;2.07;1.63;;;0.70;99.90;;;;;;5092583;28;20172;-76
2022/03/09 01:45:08;;;;;;;4.77;4.33;;;0.80;99.90;;;;;;5074623;28;20207;-76
2022/03/09 01:47:34;;;;;;;0.77;0.77;;;0.80;99.90;;;;;;5092640;28;20179;-76
2022/03/09 01:50:00;;;;;;;2.20;0.87;;;0.80;99.90;;;;;;5074940;28;20179;-76
2022/03/09 01:52:26;;;;;;;0.53;0.53;;;0.70;99.90;;;;;;5074055;28;20176;-75
2022/03/09 01:54:53;;;;;;;0.10;0.10;;;0.70;99.90;;;;;;5155279;22;20305;-75
2022/03/09 01:57:20;;;;;;;0.60;0.60;;;0.60;99.90;;;;;;5133844;27;20279;-75
2022/03/09 01:59:51;;;;;;;1.00;1.00;;;0.50;99.90;;;;;;5115360;27;20170;-75
2022/03/09 02:02:17;;;;;;;1.83;1.73;;;0.40;99.90;;;;;;5114178;28;20583;-75
2022/03/09 02:04:44;;;;;;;0.20;0.20;;;0.40;99.90;;;;;;5125257;27;20956;-75
2022/03/09 02:07:11;;;;;;;1.27;1.27;;;0.50;99.90;;;;;;5107461;28;20184;-75
2022/03/09 02:09:46;;;;;;;1.17;1.07;;;0.50;99.90;;;;;;5113462;28;20170;-75
2022/03/09 02:12:17;;;;;;;3.70;2.20;;;0.40;99.90;;;;;;5112864;28;20175;-75
2022/03/09 02:14:45;;;;;;;0.60;0.60;;;0.40;99.90;;;;;;5094528;28;20504;-75
2022/03/09 02:17:14;;;;;;;0.97;0.97;;;0.40;99.90;;;;;;5094734;28;20195;-75
2022/03/09 02:19:42;;;;;;;2.00;1.70;;;0.30;99.90;;;;;;5094520;28;20203;-75
2022/03/09 02:22:20;;;;;;;0.87;0.87;;;0.20;99.90;;;;;;5112466;28;20163;-75
2022/03/09 02:24:47;;;;;;;0.70;0.70;;;0.20;99.90;;;;;;5112814;28;20575;-75
2022/03/09 02:27:14;;;;;;;0.17;0.17;;;0.30;99.90;;;;;;5095311;28;20186;-75
2022/03/09 02:29:40;;;;;;;0.53;0.53;;;0.30;99.90;;;;;;5112489;28;20179;-75
2022/03/09 02:32:07;;;;;;;4.83;2.97;;;0.30;99.90;;;;;;5112303;28;20258;-75
2022/03/09 02:34:32;;;;;;;1.47;1.40;;;0.30;99.90;;;;;;5112537;28;20199;-75
2022/03/09 02:36:58;;;;;;;0.30;0.30;;;0.30;99.90;;;;;;5094229;28;20206;-75
2022/03/09 02:39:24;;;;;;;3.17;2.87;;;0.30;99.90;;;;;;5094268;28;20171;-75
2022/03/09 02:41:50;;;;;;;3.30;0.63;;;0.30;99.90;;;;;;5111928;28;20273;-75
2022/03/09 02:44:15;;;;;;;0.50;0.50;;;0.30;99.90;;;;;;5112071;28;20202;-75
2022/03/09 02:46:41;;;;;;;0.30;0.30;;;0.20;99.90;;;;;;5112232;28;20291;-75
2022/03/09 02:49:07;;;;;;;0.40;0.40;;;0.20;99.90;;;;;;5094004;28;20202;-74
2022/03/09 02:51:33;;;;;;;3.10;2.83;;;0.20;99.90;;;;;;5111839;28;20220;-75
2022/03/09 02:53:58;;;;;;;0.30;0.30;;;0.20;99.90;;;;;;5111865;28;20657;-75
2022/03/09 02:56:24;;;;;;;0.30;0.30;;;0.20;99.90;;;;;;5111967;28;20191;-75
2022/03/09 02:58:49;;;;;;;0.93;0.93;;;0.20;99.90;;;;;;5111816;28;20159;-75
2022/03/09 03:01:15;;;;;;;0.70;0.70;;;0.10;99.90;;;;;;5111990;28;20175;-75
2022/03/09 03:03:42;;;;;;;1.60;1.57;;;0.00;99.90;;;;;;5112723;28;20191;-74
2022/03/09 03:06:12;;;;;;;1.23;1.23;;;-0.10;99.90;;;;;;5086587;28;20278;-74
2022/03/09 03:08:38;;;;;;;0.17;0.17;;;-0.10;99.90;;;;;;5111783;28;20266;-74
2022/03/09 03:11:05;;;;;;;0.37;0.37;;;-0.20;99.90;;;;;;5111874;28;20171;-75
2022/03/09 03:13:31;;;;;;;0.10;0.10;;;-0.30;99.90;;;;;;5090125;28;20241;-76
2022/03/09 03:15:57;;;;;;;1.50;1.40;;;-0.30;99.90;;;;;;5101531;28;21038;-76
2022/03/09 03:18:22;;;;;;;0.80;0.80;;;-0.40;99.90;;;;;;5094074;28;20690;-75
2022/03/09 03:20:54;;;;;;;1.93;1.10;;;-0.50;99.90;;;;;;5112574;28;20258;-75
2022/03/09 03:23:22;;;;;;;0.43;0.43;;;-0.60;99.90;;;;;;5093954;28;20175;-76
2022/03/09 03:25:52;;;;;;;0.33;0.33;;;-0.60;99.90;;;;;;5112522;28;20191;-75
2022/03/09 03:28:18;;;;;;;1.93;1.60;;;-0.40;99.90;;;;;;5112497;28;20183;-75
2022/03/09 03:30:44;;;;;;;0.10;0.10;;;-0.40;99.90;;;;;;5093694;28;20179;-74
2022/03/09 03:33:10;;;;;;;0.83;0.83;;;-0.30;99.90;;;;;;5093742;28;20190;-74
2022/03/09 03:35:36;;;;;;;1.53;1.43;;;-0.30;99.90;;;;;;5094044;28;20248;-74
2022/03/09 03:38:02;;;;;;;0.37;0.37;;;-0.20;99.90;;;;;;5112555;28;20776;-74
2022/03/09 03:40:28;;;;;;;3.30;0.70;;;-0.10;99.90;;;;;;5095413;28;20171;-75
2022/03/09 03:42:53;;;;;;;0.40;0.40;;;-0.10;99.90;;;;;;5094161;28;20182;-74
2022/03/09 03:45:19;;;;;;;1.33;1.07;;;0.00;99.90;;;;;;5112261;28;20207;-76
2022/03/09 03:47:44;;;;;;;0.20;0.20;;;0.30;99.90;;;;;;5112143;28;20705;-76
2022/03/09 03:50:10;;;;;;;0.20;0.20;;;0.40;99.90;;;;;;5112390;28;20596;-75
2022/03/09 03:52:35;;;;;;;0.73;0.73;;;0.30;99.90;;;;;;5112041;28;20171;-74
2022/03/09 03:55:01;;;;;;;5.23;1.90;;;0.10;99.90;;;;;;5112366;28;20264;-74
2022/03/09 03:57:27;;;;;;;0.80;0.80;;;0.00;99.90;;;;;;5111736;28;20202;-76
2022/03/09 03:59:52;;;;;;;1.53;1.43;;;0.00;99.90;;;;;;5112243;28;20609;-74
2022/03/09 04:02:18;;;;;;;3.83;2.40;;;0.00;99.90;;;;;;5111282;28;20179;-74
2022/03/09 04:04:44;;;;;;;1.03;1.03;;;-0.10;99.90;;;;;;5111669;28;20270;-74
2022/03/09 04:07:09;;;;;;;2.33;1.60;;;-0.10;99.90;;;;;;5105685;28;20183;-74
2022/03/09 04:09:35;;;;;;;0.10;0.10;;;-0.10;99.90;;;;;;5111357;28;20227;-75
2022/03/09 04:12:01;;;;;;;0.17;0.17;;;-0.20;99.90;;;;;;5111659;28;20313;-75
2022/03/09 04:14:26;;;;;;;0.43;0.43;;;-0.20;99.90;;;;;;5112099;28;20192;-76
2022/03/09 04:16:52;;;;;;;1.60;1.50;;;-0.30;99.90;;;;;;5111569;28;20203;-75
2022/03/09 04:19:17;;;;;;;1.33;1.33;;;-0.30;99.90;;;;;;5111840;28;20538;-75
2022/03/09 04:21:43;;;;;;;0.53;0.53;;;-0.30;99.90;;;;;;5110968;28;20713;-74
2022/03/09 04:24:09;;;;;;;1.27;1.27;;;-0.30;99.90;;;;;;5111265;28;20301;-75
2022/03/09 04:26:34;;;;;;;0.20;0.20;;;-0.40;99.90;;;;;;5112585;28;20194;-74
2022/03/09 04:29:00;;;;;;;0.70;0.70;;;-0.40;99.90;;;;;;5115173;28;20178;-75
2022/03/09 04:31:26;;;;;;;2.10;1.60;;;-0.40;99.90;;;;;;5115134;28;20175;-75
2022/03/09 04:33:51;;;;;;;0.20;0.20;;;-0.40;99.90;;;;;;5097437;28;20171;-74
2022/03/09 04:36:17;;;;;;;0.20;0.20;;;-0.40;99.90;;;;;;5121625;28;20186;-75
2022/03/09 04:38:43;;;;;;;0.30;0.30;;;-0.50;99.90;;;;;;5122411;28;20186;-74
2022/03/09 04:41:09;;;;;;;0.50;0.50;;;-0.50;99.90;;;;;;5097049;28;20179;-74
2022/03/09 04:43:34;;;;;;;0.60;0.60;;;-0.50;99.90;;;;;;5114871;28;20258;-75
2022/03/09 04:46:00;;;;;;;11.13;1.63;;;-0.60;99.90;;;;;;5114870;28;20231;-74
2022/03/09 04:48:25;;;;;;;1.90;1.80;;;-0.70;99.90;;;;;;5115017;28;20214;-75
2022/03/09 04:50:51;;;;;;;0.10;0.10;;;-0.80;99.90;;;;;;5115392;28;20634;-74
2022/03/09 04:53:17;;;;;;;0.97;0.97;;;-0.90;99.90;;;;;;5096782;28;20183;-75
2022/03/09 04:55:42;;;;;;;1.23;1.23;;;-1.00;99.90;;;;;;5092954;28;20219;-74
2022/03/09 04:58:08;;;;;;;0.63;0.63;;;-1.10;99.90;;;;;;5105142;28;20264;-74
2022/03/09 05:00:33;;;;;;;5.70;0.97;;;-1.10;99.90;;;;;;5114622;28;20178;-74
2022/03/09 05:02:59;;;;;;;1.70;1.60;;;-1.20;99.90;;;;;;5115351;28;20175;-75
2022/03/09 05:05:24;;;;;;;1.27;1.00;;;-1.20;99.90;;;;;;5096967;28;20203;-74
2022/03/09 05:07:50;;;;;;;0.50;0.50;;;-1.40;99.90;;;;;;5111212;28;20182;-73
2022/03/09 05:10:16;;;;;;;9.00;3.83;;;-1.50;99.90;;;;;;5116872;28;20244;-75
2022/03/09 05:12:41;;;;;;;0.20;0.20;;;-1.60;99.90;;;;;;5114527;28;20175;-74
2022/03/09 05:15:07;;;;;;;0.27;0.27;;;-1.60;99.90;;;;;;5095818;28;20214;-74
2022/03/09 05:17:39;;;;;;;5.53;3.00;;;-1.60;99.90;;;;;;5113958;28;20275;-75
2022/03/09 05:20:05;;;;;;;0.80;0.80;;;-1.60;99.90;;;;;;5114089;28;20203;-75
2022/03/09 05:22:30;;;;;;;1.03;1.03;;;-1.60;99.90;;;;;;5112735;28;20183;-75
2022/03/09 05:24:56;;;;;;;0.20;0.20;;;-1.60;99.90;;;;;;5114045;28;20209;-75
2022/03/09 05:27:26;;;;;;;0.40;0.40;;;-1.60;99.90;;;;;;5113887;28;20205;-74
2022/03/09 05:29:51;;;;;;;3.53;1.73;;;-1.50;99.90;;;;;;5114043;28;20198;-75
2022/03/09 05:32:17;;;;;;;0.10;0.10;;;-1.30;99.90;;;;;;5113748;28;20178;-75
2022/03/09 05:34:42;;;;;;;3.07;1.17;;;-1.20;99.90;;;;;;5115184;28;20573;-76
2022/03/09 05:37:08;;;;;;;1.77;1.67;;;-1.10;99.90;;;;;;5113682;28;20210;-75
2022/03/09 05:39:33;;;;;;;3.40;1.23;;;-1.10;99.90;;;;;;5114293;28;20208;-75
2022/03/09 05:41:59;;;;;;;0.20;0.20;;;-1.10;99.90;;;;;;5097326;28;20179;-75
2022/03/09 05:44:25;;;;;;;1.10;1.10;;;-1.10;99.90;;;;;;5096669;28;20207;-75
2022/03/09 05:46:50;;;;;;;0.13;0.13;;;-1.10;99.90;;;;;;5114431;28;20198;-75
2022/03/09 05:49:17;;;;;;;0.13;0.13;;;-1.10;99.90;;;;;;5106903;28;20270;-75
2022/03/09 05:51:42;;;;;;;0.57;0.57;;;-1.10;99.90;;;;;;5107137;28;20171;-75
2022/03/09 05:54:08;;;;;;;0.20;0.20;;;-1.10;99.90;;;;;;5111247;28;20619;-73
2022/03/09 05:56:33;;;;;;;1.57;1.23;;;-1.00;99.90;;;;;;5111947;28;20207;-75
2022/03/09 05:58:59;;;;;;;0.80;0.80;;;-0.90;99.90;;;;;;5112275;28;20172;-74
2022/03/09 06:01:25;;;;;;;0.10;0.10;;;-1.00;99.90;;;;;;5090981;28;20191;-74
2022/03/09 06:03:50;;;;;;;0.87;0.87;;;-1.10;99.90;;;;;;5110677;28;20210;-74
2022/03/09 06:06:16;;;;;;;0.23;0.23;;;-1.00;99.90;;;;;;5113049;28;20360;-74
2022/03/09 06:08:41;;;;;;;1.07;0.97;;;-1.10;99.90;;;;;;5112737;28;20175;-75
2022/03/09 06:11:08;;;;;;;0.17;0.17;;;-1.20;99.90;;;;;;5091076;28;20176;-74
2022/03/09 06:13:33;;;;;;;0.60;0.60;;;-1.20;99.90;;;;;;5110423;28;20171;-74
2022/03/09 06:15:59;;;;;;;0.40;0.40;;;-1.20;99.90;;;;;;5113046;28;20214;-74
2022/03/09 06:18:24;;;;;;;2.27;2.17;;;-1.10;99.90;;;;;;5112248;28;20271;-74
2022/03/09 06:20:50;;;;;;;4.23;2.73;;;-1.10;99.90;;;;;;5094783;28;20669;-74
2022/03/09 06:23:16;;;;;;;0.60;0.60;;;-1.00;99.90;;;;;;5109199;28;20167;-74
2022/03/09 06:25:42;;;;;;;0.73;0.73;;;-0.80;99.90;;;;;;5111940;28;20180;-74
2022/03/09 06:28:07;;;;;;;0.60;0.60;;;-0.80;99.90;;;;;;5111751;28;20266;-73
2022/03/09 06:30:33;;;;;;;0.73;0.73;;;-0.70;99.90;;;;;;5112386;28;20229;-77
2022/03/09 06:32:58;;;;;;;1.17;1.17;;;-0.70;99.90;;;;;;5112190;28;20228;-75
2022/03/09 06:35:24;;;;;;;1.47;1.37;;;-0.70;99.90;;;;;;5093876;28;20248;-75
2022/03/09 06:37:50;;;;;;;2.43;2.33;;;-0.70;99.90;;;;;;5111767;28;20195;-75
2022/03/09 06:40:15;;;;;;;2.33;1.03;;;-0.60;99.90;;;;;;5112636;28;20181;-76
2022/03/09 06:42:41;;;;;;;0.60;0.60;;;-0.50;99.90;;;;;;5112087;28;20254;-75
2022/03/09 06:45:07;;;;;;;2.57;2.27;;;-0.30;99.90;;;;;;5112291;28;20254;-76
2022/03/09 06:47:35;;;;;;;3.20;2.93;;;-0.30;99.90;;;;;;5112700;28;20258;-76
2022/03/09 06:50:01;;;;;;;3.20;2.47;;;-0.20;99.90;;;;;;5111654;28;20220;-75
2022/03/09 06:52:27;;;;;;;0.63;0.63;;;-0.10;99.90;;;;;;5111686;28;20228;-76
2022/03/09 06:54:52;;;;;;;1.13;1.13;;;-0.10;99.90;;;;;;5093633;28;20628;-76
2022/03/09 06:57:18;;;;;;;1.03;1.03;;;0.10;99.90;;;;;;5112299;28;20248;-77
2022/03/09 06:59:44;;;;;;;0.57;0.57;;;0.20;99.90;;;;;;5109279;28;20184;-77
2022/03/09 07:02:10;;;;;;;4.43;2.17;;;0.30;99.90;;;;;;5109165;28;20163;-77
2022/03/09 07:04:35;;;;;;;1.00;1.00;;;0.40;99.90;;;;;;5090914;28;20234;-77
2022/03/09 07:07:01;;;;;;;0.40;0.40;;;0.50;99.90;;;;;;5099930;28;20232;-76
2022/03/09 07:09:27;;;;;;;1.53;1.47;;;0.60;99.90;;;;;;5098641;28;20175;-77
2022/03/09 07:11:53;;;;;;;1.03;0.43;;;0.70;99.90;;;;;;5115923;28;20561;-75
2022/03/09 07:14:18;;;;;;;0.10;0.10;;;0.80;99.90;;;;;;5120848;28;20568;-76
2022/03/09 07:16:44;;;;;;;0.87;0.87;;;1.00;99.90;;;;;;5096024;28;20237;-76
2022/03/09 07:19:09;;;;;;;1.47;1.37;;;1.00;99.90;;;;;;5092900;28;20176;-76
2022/03/09 07:21:35;;;;;;;6.27;2.80;;;1.20;99.90;;;;;;5110979;28;20171;-75
2022/03/09 07:24:00;;;;;;;0.40;0.40;;;1.30;99.90;;;;;;5113750;28;20628;-76
2022/03/09 07:26:26;;;;;;;0.63;0.63;;;1.40;99.90;;;;;;5113994;28;20179;-76
2022/03/09 07:28:53;;;;;;;4.43;3.50;;;1.60;99.90;;;;;;5113394;28;20664;-76
2022/03/09 07:31:18;;;;;;;0.10;0.10;;;1.70;99.90;;;;;;5114436;28;20266;-76
2022/03/09 07:33:44;;;;;;;0.73;0.73;;;1.90;99.90;;;;;;5113421;28;20707;-76
2022/03/09 07:36:09;;;;;;;1.07;1.07;;;2.10;99.90;;;;;;5112616;28;20208;-76
2022/03/09 07:38:38;;;;;;;2.70;1.65;;;2.40;99.90;;;;;;5090690;28;20939;-75
2022/03/09 07:41:04;;;;;;;0.70;0.70;;;2.60;99.90;;;;;;5111491;28;20270;-75
2022/03/09 07:43:29;;;;;;;0.17;0.17;;;2.70;99.90;;;;;;5092705;28;20212;-75
2022/03/09 07:45:55;;;;;;;0.60;0.60;;;3.00;99.90;;;;;;5093812;28;20195;-75
2022/03/09 07:48:21;;;;;;;0.73;0.47;;;3.10;99.90;;;;;;5112849;28;20182;-75
2022/03/09 07:50:46;;;;;;;4.27;2.73;;;3.20;99.90;;;;;;5112916;28;20178;-74
2022/03/09 07:53:12;;;;;;;2.03;1.23;;;3.40;99.90;;;;;;5091078;28;20242;-75
2022/03/09 07:55:37;;;;;;;0.70;0.70;;;3.60;99.90;;;;;;5129963;22;20226;-77
2022/03/09 07:58:03;;;;;;;1.23;0.83;;;3.70;99.90;;;;;;5090718;28;20218;-77
2022/03/09 08:00:28;;;;;;;2.87;2.67;;;3.80;99.90;;;;;;5091507;28;20195;-76
2022/03/09 08:02:54;;;;;;;3.70;3.40;;;3.90;99.90;;;;;;5094159;28;20201;-77
2022/03/09 08:05:21;;;;;;;1.50;0.97;;;4.00;99.90;;;;;;5084240;28;20210;-77
2022/03/09 08:07:46;;;;;;;0.90;0.90;;;4.10;99.90;;;;;;5108842;28;20191;-77
2022/03/09 08:10:12;;;;;;;5.53;2.17;;;4.20;99.90;;;;;;5090913;28;20180;-77
2022/03/09 08:12:39;;;;;;;1.80;1.70;;;4.30;99.90;;;;;;5104047;28;20257;-78
2022/03/09 08:15:05;;;;;;;0.93;0.70;;;4.50;99.90;;;;;;5101048;28;20199;-76
2022/03/09 08:17:30;;;;;;;4.13;0.60;;;4.50;99.90;;;;;;5090956;28;20207;-75
2022/03/09 08:19:56;;;;;;;2.20;2.00;;;4.60;99.90;;;;;;5103568;28;20168;-73
2022/03/09 08:22:22;;;;;;;8.40;3.90;;;4.70;99.90;;;;;;5104446;28;20185;-74
2022/03/09 08:24:48;;;;;;;0.57;0.57;;;5.00;99.90;;;;;;5107569;28;20199;-74
2022/03/09 08:27:13;;;;;;;2.00;1.40;;;5.10;99.90;;;;;;5100401;28;20171;-75
2022/03/09 08:29:39;;;;;;;5.67;1.23;;;5.20;99.90;;;;;;5114185;28;20703;-75
2022/03/09 08:32:05;;;;;;;0.87;0.87;;;5.30;99.90;;;;;;5087727;28;20195;-76
2022/03/09 08:34:31;;;;;;;0.97;0.97;;;5.50;99.90;;;;;;5110147;28;20179;-76
2022/03/09 08:36:56;;;;;;;0.80;0.80;;;5.60;99.90;;;;;;5100193;28;20565;-76
2022/03/09 08:39:22;;;;;;;0.73;0.73;;;5.80;99.90;;;;;;5109093;28;20178;-76
2022/03/09 08:41:47;;;;;;;0.67;0.67;;;5.80;99.90;;;;;;5095047;28;20176;-76
2022/03/09 08:44:13;;;;;;;2.43;2.20;;;6.00;99.90;;;;;;5107629;28;20171;-76
2022/03/09 08:46:38;;;;;;;1.73;1.63;;;6.10;99.90;;;;;;5099972;28;20200;-76
2022/03/09 08:49:04;;;;;;;1.13;1.07;;;6.20;99.90;;;;;;5087259;28;20206;-75
2022/03/09 08:51:29;;;;;;;1.47;1.47;;;6.20;99.90;;;;;;5104536;28;20269;-76
2022/03/09 08:53:55;;;;;;;5.10;2.53;;;6.30;99.90;;;;;;5090270;28;20313;-76
2022/03/09 08:56:21;;;;;;;0.73;0.73;;;6.40;99.90;;;;;;5109858;28;20279;-75
2022/03/09 08:58:47;;;;;;;1.67;1.57;;;6.60;99.90;;;;;;5110788;28;20167;-75
2022/03/09 09:01:13;;;;;;;1.13;1.10;;;6.70;99.90;;;;;;5096497;28;20214;-75
2022/03/09 09:03:39;;;;;;;0.60;0.60;;;6.80;99.90;;;;;;5087022;28;20207;-74
2022/03/09 09:06:04;;;;;;;1.63;1.03;;;6.80;99.90;;;;;;5099298;28;20223;-74
2022/03/09 09:08:30;;;;;;;1.10;1.10;;;6.90;99.90;;;;;;5111212;28;20179;-76
2022/03/09 09:10:55;;;;;;;2.40;2.20;;;7.00;99.90;;;;;;5083931;28;20265;-74
2022/03/09 09:13:21;;;;;;;1.80;1.50;;;7.20;99.90;;;;;;5105070;28;20195;-74
2022/03/09 09:15:49;;;;;;;2.27;0.73;;;7.20;99.90;;;;;;5108872;28;20201;-73
2022/03/09 09:18:14;;;;;;;1.23;1.20;;;7.30;99.90;;;;;;5104682;28;20195;-75
2022/03/09 09:20:40;;;;;;;1.50;1.40;;;7.40;99.90;;;;;;5113435;28;20186;-74
2022/03/09 09:23:05;;;;;;;2.10;2.00;;;7.80;99.90;;;;;;5114190;28;20179;-73
2022/03/09 09:25:31;;;;;;;1.93;1.80;;;7.80;99.90;;;;;;5104604;28;20237;-76
2022/03/09 09:27:57;;;;;;;3.53;0.80;;;7.90;99.90;;;;;;5087504;28;20611;-74
2022/03/09 09:30:23;;;;;;;4.23;1.90;;;8.10;99.90;;;;;;5083318;28;20669;-75
2022/03/09 09:32:49;;;;;;;5.40;2.03;;;8.10;99.90;;;;;;5112635;28;20927;-74
2022/03/09 09:35:17;;;;;;;1.87;1.57;;;8.20;99.90;;;;;;5108302;28;20198;-75
2022/03/09 09:37:43;;;;;;;3.13;2.10;;;8.60;99.90;;;;;;5103948;28;20708;-74
2022/03/09 09:40:11;;;;;;;4.73;4.37;;;8.70;99.90;;;;;;5092383;28;20703;-75
2022/03/09 09:42:37;;;;;;;3.30;1.93;;;8.80;99.90;;;;;;5109497;28;20175;-76
2022/03/09 09:45:04;;;;;;;1.63;1.53;;;9.00;99.90;;;;;;5113764;28;20608;-74
2022/03/09 09:47:31;;;;;;;0.87;0.87;;;9.10;99.90;;;;;;5110913;28;20187;-73
2022/03/09 09:49:58;;;;;;;1.73;1.73;;;9.20;99.90;;;;;;5102537;28;20171;-75
2022/03/09 09:52:28;;;;;;;0.87;0.87;;;9.20;99.90;;;;;;5108333;28;20647;-74
2022/03/09 09:54:55;;;;;;;2.13;1.97;;;9.30;99.90;;;;;;5105014;28;20203;-74
2022/03/09 09:57:21;;;;;;;4.63;1.57;;;9.20;99.90;;;;;;5108285;28;20199;-77
2022/03/09 09:59:47;;;;;;;4.33;2.00;;;9.30;99.90;;;;;;5113243;28;20634;-76
2022/03/09 10:02:13;;;;;;;1.37;0.83;;;9.50;99.90;;;;;;5102729;28;20183;-74
2022/03/09 10:04:39;;;;;;;6.23;2.90;;;9.70;99.90;;;;;;5096048;28;20539;-74
2022/03/09 10:07:05;;;;;;;1.33;1.07;;;9.60;99.90;;;;;;5086975;28;20184;-75
2022/03/09 10:09:35;;;;;;;7.90;3.33;;;9.80;99.90;;;;;;5099233;28;20229;-75
2022/03/09 10:12:04;;;;;;;4.67;1.63;;;9.90;99.90;;;;;;5096439;28;20183;-75
2022/03/09 10:14:50;;;;;;;0.93;0.93;;;9.90;99.90;;;;;;5112711;28;20599;-75
2022/03/09 10:17:20;;;;;;;1.57;0.90;;;10.00;99.90;;;;;;5094511;28;20249;-74
2022/03/09 10:19:50;;;;;;;9.97;1.27;;;10.20;99.90;;;;;;5106079;28;20176;-74
2022/03/09 10:22:37;;;;;;;2.40;2.10;;;10.50;99.90;;;;;;5098291;28;20182;-74
2022/03/09 10:25:10;;;;;;;2.37;1.13;;;10.40;99.90;;;;;;5109334;28;20223;-74
2022/03/09 10:27:43;;;;;;;3.73;1.80;;;10.30;99.90;;;;;;5106594;28;20202;-73
2022/03/09 10:30:16;;;;;;;2.00;1.90;;;10.40;99.90;;;;;;5103032;28;20186;-74
2022/03/09 10:32:53;;;;;;;9.63;1.80;;;10.50;99.90;;;;;;5107391;28;20222;-74
2022/03/09 10:35:39;;;;;;;3.83;2.23;;;10.70;99.90;;;;;;5095370;28;20279;-73
2022/03/09 10:38:08;;;;;;;10.13;2.97;;;10.90;99.90;;;;;;5092550;28;20207;-73
2022/03/09 10:40:46;;;;;;;2.27;2.00;;;11.10;99.90;;;;;;5111978;28;20173;-74
2022/03/09 10:43:16;;;;;;;1.77;1.10;;;11.30;99.90;;;;;;5110738;28;20199;-75
2022/03/09 10:45:58;;;;;;;9.13;1.43;;;11.20;99.90;;;;;;5112791;28;20630;-74
2022/03/09 10:48:23;;;;;;;1.63;1.53;;;11.60;99.90;;;;;;5091043;28;20254;-72
2022/03/09 10:50:54;;;;;;;4.27;1.60;;;11.70;99.90;;;;;;5108963;28;20174;-74
2022/03/09 10:53:20;;;;;;;2.47;2.30;;;12.00;99.90;;;;;;5112484;28;20171;-74
2022/03/09 10:55:46;;;;;;;1.80;1.70;;;12.00;99.90;;;;;;5107185;28;20261;-74
2022/03/09 10:58:20;;;;;;;4.43;2.37;;;12.10;99.90;;;;;;5099863;28;20763;-74
2022/03/09 11:00:50;;;;;;;1.43;1.33;;;12.50;99.90;;;;;;5106365;28;20183;-75
2022/03/09 11:03:21;;;;;;;3.03;2.83;;;12.50;99.90;;;;;;5107039;28;20174;-76
2022/03/09 11:06:05;;;;;;;2.53;1.67;;;12.60;99.90;;;;;;5102558;28;20195;-75
2022/03/09 11:08:35;;;;;;;1.57;1.53;;;12.80;99.90;;;;;;5086496;28;20614;-75
2022/03/09 11:11:02;;;;;;;2.77;2.27;;;13.20;99.90;;;;;;5099066;28;20256;-74
2022/03/09 11:13:30;;;;;;;2.67;1.50;;;13.00;99.40;;;;;;5110665;28;20309;-76
2022/03/09 11:15:56;;;;;;;3.60;3.03;;;13.10;99.90;;;;;;5100932;28;20203;-75
2022/03/09 11:18:24;;;;;;;2.87;2.17;;;13.30;99.50;;;;;;5102592;28;20261;-75
2022/03/09 11:20:52;;;;;;;3.67;2.17;;;13.40;98.30;;;;;;5110386;28;20240;-74
2022/03/09 11:23:19;;;;;;;2.10;1.50;;;13.80;97.10;;;;;;5100824;28;20718;-74
2022/03/09 11:26:14;;;;;;;2.03;1.80;;;13.80;96.30;;;;;;5085676;28;20206;-75
2022/03/09 11:28:43;;;;;;;3.70;2.30;;;14.20;95.20;;;;;;5096755;28;20270;-75
2022/03/09 11:31:11;;;;;;;4.20;3.30;;;14.80;95.00;;;;;;5090898;28;20225;-75
2022/03/09 11:33:39;;;;;;;2.10;1.90;;;15.00;92.30;;;;;;5085822;28;20192;-75
2022/03/09 11:36:26;;;;;;;2.07;1.83;;;15.30;92.00;;;;;;5081297;28;20203;-75
2022/03/09 11:39:04;;;;;;;6.63;2.87;;;16.00;91.30;;;;;;5092487;28;20702;-75
2022/03/09 11:41:36;;;;;;;2.03;1.83;;;16.70;90.30;;;;;;5101756;28;20167;-75
2022/03/09 11:44:20;;;;;;;2.67;2.47;;;16.60;90.60;;;;;;5103395;28;20220;-76
2022/03/09 11:47:00;;;;;;;6.90;2.63;;;16.40;87.40;;;;;;5106355;28;20211;-76
2022/03/09 11:49:36;;;;;;;2.40;1.67;;;16.70;84.40;;;;;;5110358;28;20186;-76
2022/03/09 11:52:10;;;;;;;5.90;3.37;;;17.00;85.00;;;;;;5090315;28;20238;-75
2022/03/09 11:54:39;;;;;;;3.27;2.47;;;17.30;76.50;;;;;;5100945;28;20181;-77
2022/03/09 11:57:05;;;;;;;1.80;1.67;;;16.50;77.70;;;;;;5098651;28;20211;-75
2022/03/09 11:59:30;;;;;;;2.43;1.83;;;16.90;80.10;;;;;;5113764;28;20901;-76
2022/03/09 12:01:59;;;;;;;6.60;2.80;;;17.50;77.50;;;;;;5105712;28;20179;-76
2022/03/09 12:04:39;;;;;;;7.70;2.83;;;17.40;73.10;;;;;;5101641;28;20173;-76
2022/03/09 12:07:06;;;;;;;2.60;1.27;;;17.90;75.20;;;;;;5089225;28;20188;-76
2022/03/09 12:09:54;;;;;;;2.37;2.20;;;17.20;73.50;;;;;;5111523;28;20180;-76
2022/03/09 12:12:19;;;;;;;8.37;5.50;;;17.20;70.20;;;;;;5107852;28;20194;-76
2022/03/09 12:15:04;;;;;;;3.73;3.43;;;18.00;70.20;;;;;;5101472;28;20286;-75
2022/03/09 12:17:39;;;;;;;6.20;3.13;;;18.40;68.50;;;;;;5101265;28;20206;-75
2022/03/09 12:20:23;;;;;;;4.60;2.60;;;18.10;68.90;;;;;;5102802;28;20188;-75
2022/03/09 12:22:59;;;;;;;2.07;1.60;;;18.10;68.10;;;;;;5099454;28;20186;-76
2022/03/09 12:25:40;;;;;;;2.13;1.97;;;18.40;66.30;;;;;;5088791;28;20267;-74
2022/03/09 12:28:21;;;;;;;2.50;1.83;;;18.20;68.00;;;;;;5100307;28;20660;-76
2022/03/09 12:30:48;;;;;;;4.00;3.40;;;18.40;67.40;;;;;;5081951;28;20186;-76
2022/03/09 12:33:25;;;;;;;5.30;3.47;;;18.10;63.40;;;;;;5081053;28;20931;-75
2022/03/09 12:35:52;;;;;;;1.53;1.43;;;18.40;67.10;;;;;;5087159;28;20269;-75
2022/03/09 12:38:18;;;;;;;9.17;3.97;;;18.80;67.10;;;;;;5111351;28;20236;-78
2022/03/09 12:40:45;;;;;;;3.93;2.17;;;18.60;62.10;;;;;;5100379;28;20176;-74
2022/03/09 12:43:11;;;;;;;4.93;4.33;;;19.40;56.40;;;;;;5095932;28;20202;-75
2022/03/09 12:45:51;;;;;;;3.03;2.60;;;18.60;57.20;;;;;;5113646;28;20194;-76
2022/03/09 12:48:18;;;;;;;4.40;2.30;;;18.30;58.10;;;;;;5113458;28;20175;-76
2022/03/09 12:50:44;;;;;;;5.40;3.60;;;19.40;56.90;;;;;;5109641;28;20206;-76
2022/03/09 12:53:10;;;;;;;3.77;2.47;;;18.50;58.10;;;;;;5112473;28;20179;-75